Time;durP1;ratioP1;P1;durP2;ratioP2;P2;SDS_P1;SDS_P2;PMS_P1;PMS_P2;Temp;Humidity;BMP_temperature;BMP_pressure;BME280_temperature;BME280_humidity;BME280_pressure;Samples;Min_cycle;Max_cycle;Signal;HPM_P1;HPM_P2
2022/01/01 00:01:48;;;;;;;5.70;4.70;;;;;;;8.49;55.38;98656.81;1832932;77;21525;-65
2022/01/01 00:04:14;;;;;;;5.70;4.72;;;;;;;8.50;55.38;98656.30;1834113;77;21079;-64
2022/01/01 00:06:41;;;;;;;5.95;5.35;;;;;;;8.51;55.38;98657.45;1824673;77;21502;-64
2022/01/01 00:09:08;;;;;;;5.28;4.45;;;;;;;8.50;55.38;98654.50;1792587;79;21515;-64
2022/01/01 00:11:34;;;;;;;5.33;4.67;;;;;;;8.51;55.37;98648.70;1774231;79;21077;-64
2022/01/01 00:14:01;;;;;;;5.20;4.65;;;;;;;8.52;55.36;98653.81;1804100;79;21085;-64
2022/01/01 00:16:29;;;;;;;4.65;4.15;;;;;;;8.53;55.38;98648.02;1800997;79;21482;-64
2022/01/01 00:18:57;;;;;;;5.33;4.83;;;;;;;8.52;55.36;98644.55;1758647;80;21054;-64
2022/01/01 00:21:23;;;;;;;5.03;4.20;;;;;;;8.53;55.36;98644.05;1772677;80;21153;-64
2022/01/01 00:23:50;;;;;;;4.30;3.90;;;;;;;8.54;55.35;98644.37;1766108;80;21161;-64
2022/01/01 00:26:16;;;;;;;5.00;4.50;;;;;;;8.54;55.34;98643.87;1760969;80;21081;-65
2022/01/01 00:28:43;;;;;;;4.83;4.33;;;;;;;8.54;55.33;98637.25;1829304;77;21061;-65
2022/01/01 00:31:09;;;;;;;4.85;3.98;;;;;;;8.55;55.34;98644.68;1794014;79;21061;-65
2022/01/01 00:33:36;;;;;;;4.50;4.10;;;;;;;8.55;55.32;98638.06;1788985;79;21129;-65
2022/01/01 00:36:04;;;;;;;4.95;4.00;;;;;;;8.55;55.31;98634.09;1809147;79;21088;-64
2022/01/01 00:38:30;;;;;;;4.92;4.22;;;;;;;8.56;55.31;98634.42;1834696;77;21067;-68
2022/01/01 00:40:57;;;;;;;4.95;4.20;;;;;;;8.57;55.31;98626.79;1838024;77;21498;-64
2022/01/01 00:43:26;;;;;;;4.95;4.28;;;;;;;8.57;55.32;98618.84;1819891;77;21457;-64
2022/01/01 00:45:53;;;;;;;4.53;3.65;;;;;;;8.56;55.30;98611.41;1856124;77;21169;-65
2022/01/01 00:48:19;;;;;;;4.20;3.55;;;;;;;8.57;55.30;98614.37;1849434;77;21485;-64
2022/01/01 00:50:46;;;;;;;4.60;4.17;;;;;;;8.58;55.31;98604.63;1849266;77;20981;-67
2022/01/01 00:53:12;;;;;;;4.40;3.92;;;;;;;8.58;55.31;98611.23;1849841;77;21615;-66
2022/01/01 00:55:38;;;;;;;4.15;3.75;;;;;;;8.59;55.31;98610.22;1802874;79;21050;-65
2022/01/01 00:58:05;;;;;;;5.20;3.85;;;;;;;8.59;55.30;98606.25;1800118;79;21123;-65
2022/01/01 01:00:31;;;;;;;5.20;3.90;;;;;;;8.59;55.30;98608.38;1780557;80;21005;-65
2022/01/01 01:02:58;;;;;;;4.50;3.77;;;;;;;8.59;55.30;98607.06;1850473;77;21001;-65
2022/01/01 01:05:25;;;;;;;4.87;4.08;;;;;;;8.61;55.29;98604.23;1844536;77;21001;-64
2022/01/01 01:07:52;;;;;;;4.15;3.75;;;;;;;8.61;55.28;98603.73;1851727;77;21013;-64
2022/01/01 01:10:18;;;;;;;4.10;3.70;;;;;;;8.62;55.28;98596.63;1848195;77;21485;-64
2022/01/01 01:12:48;;;;;;;4.62;4.03;;;;;;;8.62;55.26;98599.28;1847080;77;20998;-64
2022/01/01 01:15:17;;;;;;;3.95;3.52;;;;;;;8.63;55.26;98602.22;1797929;79;21013;-64
2022/01/01 01:17:46;;;;;;;4.80;4.03;;;;;;;8.63;55.25;98592.96;1849010;77;21071;-66
2022/01/01 01:20:13;;;;;;;4.30;3.33;;;;;;;8.63;55.24;98587.19;1853530;77;21524;-65
2022/01/01 01:22:40;;;;;;;3.90;3.37;;;;;;;8.64;55.26;98588.00;1852016;77;21186;-64
2022/01/01 01:25:08;;;;;;;4.70;3.58;;;;;;;8.64;55.26;98586.67;1840706;77;21021;-65
2022/01/01 01:27:36;;;;;;;4.65;3.60;;;;;;;8.66;55.23;98582.02;1843366;77;21268;-65
2022/01/01 01:30:08;;;;;;;4.78;3.72;;;;;;;8.66;55.25;98582.02;1847089;77;21013;-64
2022/01/01 01:32:37;;;;;;;4.35;3.40;;;;;;;8.66;55.25;98580.69;1804388;78;21054;-65
2022/01/01 01:35:05;;;;;;;4.65;3.62;;;;;;;8.66;55.25;98574.89;1767557;80;21077;-66
2022/01/01 01:37:33;;;;;;;4.22;3.75;;;;;;;8.67;55.22;98570.41;1821500;78;21025;-64
2022/01/01 01:39:59;;;;;;;4.03;3.35;;;;;;;8.68;55.24;98566.77;1820844;78;20974;-65
2022/01/01 01:42:27;;;;;;;3.75;2.98;;;;;;;8.68;55.24;98568.09;1808558;78;21005;-65
2022/01/01 01:44:55;;;;;;;4.65;3.45;;;;;;;8.63;55.24;98555.89;1810683;78;21488;-64
2022/01/01 01:47:30;;;;;;;3.65;3.12;;;;;;;8.69;55.22;98558.31;1811774;78;23291;-65
2022/01/01 01:49:58;;;;;;;3.67;3.30;;;;;;;8.69;55.25;98550.37;1823907;78;21027;-65
2022/01/01 01:52:30;;;;;;;4.05;3.50;;;;;;;8.69;55.22;98547.20;1823446;78;21544;-65
2022/01/01 01:54:56;;;;;;;4.15;3.30;;;;;;;8.70;55.20;98544.89;1820084;78;20966;-64
2022/01/01 01:57:22;;;;;;;4.17;3.47;;;;;;;8.70;55.21;98540.92;1824249;78;21102;-64
2022/01/01 01:59:48;;;;;;;3.72;3.08;;;;;;;8.71;55.19;98545.70;1822020;78;21064;-65
2022/01/01 02:02:15;;;;;;;3.20;2.90;;;;;;;8.71;55.19;98532.47;1802173;78;21581;-63
2022/01/01 02:04:41;;;;;;;4.62;3.42;;;;;;;8.71;55.17;98541.25;1816764;78;21022;-64
2022/01/01 02:07:08;;;;;;;4.17;3.72;;;;;;;8.74;55.15;98537.41;1829572;78;21003;-64
2022/01/01 02:09:35;;;;;;;4.05;3.25;;;;;;;8.73;55.14;98531.30;1804597;78;21069;-64
2022/01/01 02:12:04;;;;;;;4.05;2.95;;;;;;;8.74;55.14;98535.56;1827989;78;21867;-65
2022/01/01 02:15:27;;;;;;;3.50;3.20;;;;;;;8.75;55.12;98531.09;1772673;80;21038;-63
2022/01/01 02:17:16;;;;;;;3.30;3.00;;;;;;;8.76;55.11;98525.61;1792531;78;21000;-65
2022/01/01 02:19:49;;;;;;;3.50;3.20;;;;;;;8.77;55.06;98531.23;1828907;77;21060;-65
2022/01/01 02:22:17;;;;;;;3.45;2.72;;;;;;;8.78;55.06;98532.05;1826425;78;21016;-64
2022/01/01 02:24:44;;;;;;;3.52;3.00;;;;;;;8.78;55.06;98523.59;1830102;78;21123;-64
2022/01/01 02:27:11;;;;;;;3.80;3.00;;;;;;;8.80;55.04;98527.39;1822872;78;21109;-64
2022/01/01 02:29:38;;;;;;;3.05;2.75;;;;;;;8.80;55.03;98522.09;1832384;78;20982;-64
2022/01/01 02:32:10;;;;;;;3.12;2.80;;;;;;;8.81;55.02;98519.27;1822961;78;20990;-63
2022/01/01 02:34:37;;;;;;;3.77;3.00;;;;;;;8.81;54.93;98511.31;1823453;78;21026;-65
2022/01/01 02:37:04;;;;;;;3.42;2.90;;;;;;;8.81;54.93;98511.31;1833029;77;21643;-64
2022/01/01 02:39:31;;;;;;;2.92;2.60;;;;;;;8.84;54.98;98515.41;1826895;77;20999;-65
2022/01/01 02:41:58;;;;;;;3.17;2.72;;;;;;;8.85;54.96;98510.45;1841643;77;21077;-65
2022/01/01 02:44:25;;;;;;;2.70;2.50;;;;;;;8.85;54.96;98511.25;1839973;77;21592;-64
2022/01/01 02:46:55;;;;;;;3.40;3.00;;;;;;;8.87;54.94;98516.38;1845644;77;21067;-64
2022/01/01 02:49:21;;;;;;;3.37;3.08;;;;;;;8.88;54.94;98513.21;1834921;77;21151;-63
2022/01/01 02:51:48;;;;;;;3.95;3.17;;;;;;;8.89;54.88;98508.25;1839398;77;20974;-65
2022/01/01 02:54:14;;;;;;;2.98;2.58;;;;;;;8.89;54.87;98510.38;1820091;77;21030;-63
2022/01/01 02:56:41;;;;;;;4.08;2.90;;;;;;;8.91;54.87;98508.88;1845415;77;21438;-64
2022/01/01 02:59:08;;;;;;;3.27;2.80;;;;;;;8.91;54.87;98509.69;1830946;77;21038;-64
2022/01/01 03:01:36;;;;;;;3.05;2.75;;;;;;;8.93;54.85;98509.51;1839989;77;21823;-65
2022/01/01 03:04:04;;;;;;;3.25;2.52;;;;;;;8.95;54.85;98515.44;1835460;77;21103;-65
2022/01/01 03:06:32;;;;;;;3.12;2.55;;;;;;;8.94;54.83;98513.27;1840894;77;21017;-66
2022/01/01 03:08:58;;;;;;;4.25;3.05;;;;;;;8.95;54.81;98512.27;1838235;77;21063;-64
2022/01/01 03:11:26;;;;;;;3.80;3.35;;;;;;;8.97;54.81;98512.09;1841710;77;21489;-64
2022/01/01 03:13:54;;;;;;;3.00;2.70;;;;;;;8.98;54.81;98510.59;1846761;77;20982;-64
2022/01/01 03:16:22;;;;;;;3.85;3.05;;;;;;;8.98;54.76;98508.42;1825109;77;21069;-64
2022/01/01 03:18:48;;;;;;;3.72;2.67;;;;;;;9.00;54.78;98511.70;1838904;77;21072;-64
2022/01/01 03:21:15;;;;;;;2.80;2.55;;;;;;;9.00;54.75;98503.27;1840129;77;21111;-63
2022/01/01 03:23:41;;;;;;;3.77;2.75;;;;;;;9.02;54.74;98513.66;1767565;80;21081;-64
2022/01/01 03:26:08;;;;;;;3.20;2.87;;;;;;;9.02;54.71;98511.00;1801538;79;21129;-65
2022/01/01 03:28:36;;;;;;;3.35;2.47;;;;;;;9.04;54.71;98512.99;1779799;79;21071;-65
2022/01/01 03:31:04;;;;;;;2.85;2.52;;;;;;;9.05;54.69;98514.62;1795975;79;21011;-64
2022/01/01 03:33:31;;;;;;;3.83;3.15;;;;;;;9.05;54.68;98510.13;1771269;80;21278;-64
2022/01/01 03:35:59;;;;;;;3.75;2.60;;;;;;;9.07;54.71;98529.00;1787422;79;21065;-64
2022/01/01 03:38:25;;;;;;;2.62;2.42;;;;;;;9.07;54.70;98521.87;1841044;77;21279;-64
2022/01/01 03:40:52;;;;;;;3.67;3.15;;;;;;;9.08;54.69;98510.76;1854701;77;21511;-64
2022/01/01 03:43:18;;;;;;;3.12;2.83;;;;;;;9.09;54.68;98506.61;1847715;77;21045;-65
2022/01/01 03:45:44;;;;;;;3.08;2.72;;;;;;;9.10;54.63;98524.16;1831861;77;21339;-65
2022/01/01 03:48:11;;;;;;;3.15;2.67;;;;;;;9.12;54.63;98516.84;1852448;77;20993;-64
2022/01/01 03:50:37;;;;;;;2.77;2.50;;;;;;;9.12;54.61;98508.89;1837545;77;21088;-64
2022/01/01 03:53:03;;;;;;;3.10;2.50;;;;;;;9.13;54.61;98513.16;1850960;77;21577;-64
2022/01/01 03:55:30;;;;;;;2.80;2.42;;;;;;;9.14;54.60;98517.47;1849013;77;21068;-65
2022/01/01 03:57:56;;;;;;;2.90;2.45;;;;;;;9.15;54.60;98520.41;1825569;77;21064;-63
2022/01/01 04:00:23;;;;;;;3.35;2.90;;;;;;;9.16;54.58;98511.98;1841589;77;21056;-64
2022/01/01 04:02:51;;;;;;;2.77;2.47;;;;;;;9.16;54.58;98516.77;1854312;77;21114;-64
2022/01/01 04:05:19;;;;;;;3.30;2.90;;;;;;;9.17;54.57;98523.70;1843606;77;21009;-64
2022/01/01 04:07:47;;;;;;;4.17;3.10;;;;;;;9.19;54.57;98527.01;1838906;77;21037;-65
2022/01/01 04:10:13;;;;;;;3.60;2.95;;;;;;;9.19;54.57;98525.68;1827757;77;20998;-66
2022/01/01 04:12:40;;;;;;;3.37;2.85;;;;;;;9.20;54.54;98534.45;1844009;77;21083;-65
2022/01/01 04:15:08;;;;;;;3.47;2.95;;;;;;;9.21;54.54;98537.39;1852431;77;21110;-65
2022/01/01 04:17:37;;;;;;;3.02;2.60;;;;;;;9.22;54.51;98539.86;1849023;77;20993;-65
2022/01/01 04:20:06;;;;;;;3.27;2.72;;;;;;;9.23;54.53;98552.59;1839230;77;21492;-64
2022/01/01 04:22:34;;;;;;;3.47;3.05;;;;;;;9.25;54.50;98542.63;1854181;77;21028;-64
2022/01/01 04:25:02;;;;;;;2.75;2.55;;;;;;;9.24;54.49;98547.12;1846527;77;21591;-64
2022/01/01 04:27:30;;;;;;;3.25;2.50;;;;;;;9.27;54.48;98545.09;1851888;77;21063;-65
2022/01/01 04:29:58;;;;;;;3.05;2.75;;;;;;;9.27;54.49;98537.95;1851114;77;21037;-63
2022/01/01 04:32:25;;;;;;;2.87;2.45;;;;;;;9.28;54.45;98540.94;1846498;77;21061;-66
2022/01/01 04:34:53;;;;;;;2.92;2.33;;;;;;;9.29;54.41;98542.59;1842826;77;21310;-64
2022/01/01 04:37:20;;;;;;;3.25;2.95;;;;;;;9.30;54.42;98541.56;1833235;77;21037;-66
2022/01/01 04:39:50;;;;;;;3.47;3.10;;;;;;;9.30;54.44;98540.24;1808959;78;21128;-68
2022/01/01 04:42:16;;;;;;;3.98;2.60;;;;;;;9.33;54.42;98537.70;1805758;77;21085;-66
2022/01/01 04:44:43;;;;;;;3.27;2.62;;;;;;;9.32;54.43;98545.36;1788536;78;21068;-67
2022/01/01 04:47:10;;;;;;;3.10;2.50;;;;;;;9.34;54.43;98551.29;1829430;77;20982;-67
2022/01/01 04:49:36;;;;;;;2.60;2.40;;;;;;;9.33;54.41;98542.52;1800378;77;21438;-67
2022/01/01 04:52:06;;;;;;;2.75;2.40;;;;;;;9.35;54.42;98546.28;1798498;77;21140;-66
2022/01/01 04:54:34;;;;;;;3.10;2.80;;;;;;;9.36;54.34;98558.55;1812435;77;21013;-66
2022/01/01 04:57:00;;;;;;;3.47;2.83;;;;;;;9.36;54.38;98560.69;1802636;78;22020;-66
2022/01/01 04:59:27;;;;;;;2.87;2.50;;;;;;;9.37;54.36;98558.36;1817659;77;21533;-67
2022/01/01 05:01:54;;;;;;;2.55;2.30;;;;;;;9.37;54.41;98562.34;1818260;78;21006;-66
2022/01/01 05:04:20;;;;;;;2.98;2.55;;;;;;;9.38;54.35;98571.10;1818641;77;21506;-66
2022/01/01 05:06:49;;;;;;;3.12;2.70;;;;;;;9.40;54.37;98567.75;1815304;78;21033;-66
2022/01/01 05:09:16;;;;;;;2.98;2.72;;;;;;;9.41;54.36;98574.71;1804683;78;20998;-66
2022/01/01 05:11:43;;;;;;;2.87;2.52;;;;;;;9.41;54.36;98570.73;1810201;78;21513;-67
2022/01/01 05:14:10;;;;;;;2.98;2.40;;;;;;;9.41;54.34;98574.20;1816862;77;21008;-67
2022/01/01 05:16:37;;;;;;;3.33;2.80;;;;;;;9.42;54.36;98578.47;1820597;77;21789;-66
2022/01/01 05:19:04;;;;;;;3.27;2.67;;;;;;;9.41;54.32;98586.13;1814969;78;21036;-66
2022/01/01 05:21:33;;;;;;;2.95;2.52;;;;;;;9.43;54.34;98594.70;1821964;77;21009;-67
2022/01/01 05:23:59;;;;;;;2.95;2.65;;;;;;;9.44;54.33;98602.16;1820673;77;21064;-66
2022/01/01 05:26:26;;;;;;;2.95;2.60;;;;;;;9.45;54.32;98607.78;1827907;77;21524;-67
2022/01/01 05:28:52;;;;;;;2.65;2.15;;;;;;;9.45;54.32;98609.92;1833705;77;21128;-66
2022/01/01 05:31:19;;;;;;;2.62;2.42;;;;;;;9.45;54.32;98607.27;1819792;78;21564;-66
2022/01/01 05:33:47;;;;;;;3.17;2.75;;;;;;;9.47;54.31;98611.06;1831873;77;20994;-68
2022/01/01 05:36:15;;;;;;;3.02;2.50;;;;;;;9.48;54.26;98614.53;1820309;77;21016;-66
2022/01/01 05:38:45;;;;;;;3.50;2.85;;;;;;;9.48;54.30;98615.86;1838117;77;21587;-67
2022/01/01 05:41:11;;;;;;;2.95;2.65;;;;;;;9.48;54.25;98617.99;1840784;77;21086;-66
2022/01/01 05:43:38;;;;;;;3.12;2.72;;;;;;;9.49;54.32;98628.92;1827271;77;21716;-67
2022/01/01 05:46:04;;;;;;;2.67;2.35;;;;;;;9.49;54.32;98630.25;1837621;77;21002;-68
2022/01/01 05:48:30;;;;;;;3.50;2.70;;;;;;;9.50;54.31;98635.04;1784995;79;21530;-66
2022/01/01 05:50:57;;;;;;;2.83;2.55;;;;;;;9.50;54.30;98634.53;1841683;77;21034;-67
2022/01/01 05:53:24;;;;;;;2.52;2.33;;;;;;;9.50;54.24;98645.13;1822944;77;21310;-66
2022/01/01 05:55:50;;;;;;;2.98;2.20;;;;;;;9.52;54.30;98646.28;1837199;77;21072;-68
2022/01/01 05:58:17;;;;;;;2.72;2.42;;;;;;;9.53;54.30;98653.23;1814147;77;21516;-68
2022/01/01 06:00:43;;;;;;;3.10;2.70;;;;;;;9.52;54.31;98655.08;1818234;77;21358;-69
2022/01/01 06:03:10;;;;;;;2.50;2.30;;;;;;;9.53;54.28;98667.81;1835144;77;21465;-67
2022/01/01 06:05:37;;;;;;;2.60;2.35;;;;;;;9.53;54.30;98675.77;1835962;77;21123;-67
2022/01/01 06:08:04;;;;;;;2.42;2.22;;;;;;;9.54;54.33;98680.05;1832591;77;21002;-68
2022/01/01 06:10:31;;;;;;;2.67;2.20;;;;;;;9.54;54.35;98688.85;1830734;77;21076;-68
2022/01/01 06:12:57;;;;;;;2.35;2.10;;;;;;;9.56;54.34;98696.59;1824844;77;21041;-67
2022/01/01 06:15:24;;;;;;;2.30;2.10;;;;;;;9.57;54.30;98694.27;1795759;79;21101;-68
2022/01/01 06:17:51;;;;;;;2.12;1.92;;;;;;;9.55;54.34;98697.10;1769180;80;22052;-68
2022/01/01 06:20:17;;;;;;;2.40;2.17;;;;;;;9.57;54.25;98704.87;1787046;79;21054;-67
2022/01/01 06:22:44;;;;;;;2.92;2.22;;;;;;;9.57;54.27;98714.16;1788270;79;21094;-67
2022/01/01 06:25:10;;;;;;;2.80;2.17;;;;;;;9.58;54.21;98718.44;1801820;79;21072;-67
2022/01/01 06:27:37;;;;;;;2.65;2.45;;;;;;;9.58;54.23;98721.94;1770430;80;21060;-67
2022/01/01 06:30:05;;;;;;;2.65;2.22;;;;;;;9.59;54.28;98734.68;1755369;80;21142;-67
2022/01/01 06:32:34;;;;;;;2.20;1.85;;;;;;;9.58;54.29;98744.47;1749921;80;20987;-67
2022/01/01 06:35:00;;;;;;;2.30;2.10;;;;;;;9.60;54.35;98748.23;1776961;80;21064;-67
2022/01/01 06:37:26;;;;;;;2.42;2.22;;;;;;;9.59;54.35;98751.41;1757708;80;21541;-68
2022/01/01 06:39:55;;;;;;;2.65;2.30;;;;;;;9.60;54.30;98751.73;1845476;77;21026;-68
2022/01/01 06:42:21;;;;;;;2.37;2.15;;;;;;;9.61;54.33;98761.31;1855193;77;21208;-67
2022/01/01 06:44:48;;;;;;;2.02;1.82;;;;;;;9.60;54.28;98759.69;1812442;78;21437;-68
2022/01/01 06:47:15;;;;;;;2.42;2.10;;;;;;;9.63;54.21;98769.09;1853401;77;21036;-69
2022/01/01 06:49:41;;;;;;;2.50;1.92;;;;;;;9.63;54.27;98776.53;1855113;77;21072;-67
2022/01/01 06:52:09;;;;;;;2.47;2.27;;;;;;;9.63;54.25;98780.52;1855433;77;21520;-67
2022/01/01 06:54:35;;;;;;;2.40;2.15;;;;;;;9.64;54.28;98780.84;1831629;77;21104;-67
2022/01/01 06:57:03;;;;;;;1.90;1.72;;;;;;;9.64;54.29;98771.56;1829582;77;22364;-68
2022/01/01 06:59:30;;;;;;;2.52;2.33;;;;;;;9.65;54.21;98788.29;1844719;77;21057;-67
2022/01/01 07:01:57;;;;;;;2.50;1.87;;;;;;;9.66;54.24;98791.27;1851634;77;21064;-68
2022/01/01 07:04:23;;;;;;;2.55;2.10;;;;;;;9.68;54.29;98795.05;1832471;77;20982;-67
2022/01/01 07:06:50;;;;;;;2.50;2.08;;;;;;;9.68;54.23;98797.70;1837692;77;21095;-68
2022/01/01 07:09:16;;;;;;;2.47;2.00;;;;;;;9.69;54.23;98804.66;1853413;77;21041;-67
2022/01/01 07:11:43;;;;;;;2.12;1.92;;;;;;;9.69;54.27;98798.84;1846822;77;21099;-67
2022/01/01 07:14:11;;;;;;;2.00;1.70;;;;;;;9.70;54.22;98802.34;1805375;78;21104;-69
2022/01/01 07:16:38;;;;;;;2.87;2.27;;;;;;;9.70;54.22;98801.83;1781345;78;21434;-67
2022/01/01 07:19:05;;;;;;;1.95;1.70;;;;;;;9.71;54.23;98811.41;1777370;80;21136;-67
2022/01/01 07:21:31;;;;;;;2.17;1.98;;;;;;;9.72;54.25;98806.95;1781544;80;21741;-67
2022/01/01 07:23:58;;;;;;;1.80;1.60;;;;;;;9.72;54.19;98814.91;1842990;77;21440;-68
2022/01/01 07:26:25;;;;;;;1.40;1.30;;;;;;;9.73;54.22;98819.19;1845660;77;21013;-67
2022/01/01 07:28:52;;;;;;;1.80;1.42;;;;;;;9.73;54.25;98824.49;1833903;77;21073;-67
2022/01/01 07:31:19;;;;;;;2.12;1.92;;;;;;;9.74;54.27;98830.13;1839979;77;21089;-66
2022/01/01 07:33:45;;;;;;;1.60;1.40;;;;;;;9.73;54.26;98831.94;1833660;77;20996;-67
2022/01/01 07:36:11;;;;;;;2.33;1.90;;;;;;;9.75;54.27;98830.44;1803917;79;20998;-66
2022/01/01 07:38:39;;;;;;;1.75;1.65;;;;;;;9.75;54.17;98834.41;1839784;77;21591;-67
2022/01/01 07:41:06;;;;;;;2.05;1.87;;;;;;;9.76;54.22;98828.11;1847449;77;20977;-67
2022/01/01 07:43:32;;;;;;;2.17;1.80;;;;;;;9.76;54.24;98835.56;1826777;77;21009;-67
2022/01/01 07:45:59;;;;;;;2.20;1.85;;;;;;;9.78;54.24;98831.41;1843252;77;20998;-68
2022/01/01 07:48:25;;;;;;;1.52;1.40;;;;;;;9.78;54.27;98840.17;1837347;77;21018;-67
2022/01/01 07:50:52;;;;;;;1.50;1.32;;;;;;;9.75;54.29;98832.58;1823852;77;21357;-67
2022/01/01 07:53:18;;;;;;;1.45;1.35;;;;;;;9.79;54.26;98838.34;1845229;77;21041;-69
2022/01/01 07:55:44;;;;;;;2.47;1.90;;;;;;;9.79;54.20;98833.03;1834014;77;21894;-67
2022/01/01 07:58:10;;;;;;;1.90;1.72;;;;;;;9.80;54.21;98840.00;1830788;77;21065;-66
2022/01/01 08:00:37;;;;;;;1.92;1.77;;;;;;;9.80;54.25;98830.71;1824314;77;21473;-68
2022/01/01 08:03:05;;;;;;;2.42;1.98;;;;;;;9.76;54.25;98831.58;1846349;77;21021;-68
2022/01/01 08:05:32;;;;;;;2.00;1.60;;;;;;;9.82;54.31;98844.61;1820514;77;21017;-67
2022/01/01 08:07:59;;;;;;;1.50;1.40;;;;;;;9.82;54.27;98843.28;1825455;77;21111;-66
2022/01/01 08:10:27;;;;;;;2.05;1.75;;;;;;;9.82;54.27;98847.27;1840519;77;20997;-66
2022/01/01 08:12:53;;;;;;;1.57;1.47;;;;;;;9.82;54.21;98852.06;1832937;77;21501;-67
2022/01/01 08:15:21;;;;;;;1.72;1.50;;;;;;;9.83;54.24;98849.73;1839649;77;21038;-67
2022/01/01 08:17:47;;;;;;;1.62;1.52;;;;;;;9.84;54.30;98846.57;1824345;77;21041;-67
2022/01/01 08:20:14;;;;;;;1.62;1.50;;;;;;;9.85;54.26;98848.23;1818562;77;21045;-67
2022/01/01 08:22:40;;;;;;;1.82;1.60;;;;;;;9.87;54.25;98850.67;1824056;77;21638;-67
2022/01/01 08:25:08;;;;;;;2.33;1.60;;;;;;;9.87;54.29;98840.91;1830145;77;21057;-68
2022/01/01 08:27:34;;;;;;;1.92;1.47;;;;;;;9.88;54.20;98847.84;1841597;77;21072;-67
2022/01/01 08:30:00;;;;;;;1.55;1.25;;;;;;;9.88;54.17;98848.36;1841936;77;21060;-68
2022/01/01 08:32:27;;;;;;;1.52;1.42;;;;;;;9.90;54.21;98852.45;1824487;77;21041;-68
2022/01/01 08:34:53;;;;;;;1.40;1.30;;;;;;;9.90;54.25;98849.80;1819746;77;21061;-67
2022/01/01 08:37:20;;;;;;;1.57;1.47;;;;;;;9.91;54.22;98855.92;1750041;80;21466;-66
2022/01/01 08:39:47;;;;;;;1.50;1.40;;;;;;;9.92;54.21;98861.05;1768034;79;21007;-67
2022/01/01 08:42:13;;;;;;;1.47;1.37;;;;;;;9.93;54.17;98852.58;1774143;80;21065;-67
2022/01/01 08:44:41;;;;;;;1.60;1.50;;;;;;;9.93;54.26;98856.08;1769233;80;21526;-67
2022/01/01 08:47:07;;;;;;;1.70;1.60;;;;;;;9.95;54.24;98859.88;1781886;80;21044;-68
2022/01/01 08:49:33;;;;;;;1.80;1.65;;;;;;;9.96;54.22;98857.53;1768705;80;21074;-68
2022/01/01 08:53:15;;;;;;;1.77;1.67;;;;;;;10.02;54.15;98860.77;1829025;76;28699;-71
2022/01/01 08:55:41;;;;;;;2.12;1.92;;;;;;;9.99;54.11;98872.58;1817091;77;21023;-68
2022/01/01 08:58:08;;;;;;;1.62;1.52;;;;;;;10.01;54.17;98865.77;1803615;77;21972;-67
2022/01/01 09:00:35;;;;;;;1.80;1.50;;;;;;;10.03;54.22;98865.08;1810658;77;20953;-65
2022/01/01 09:03:02;;;;;;;1.40;1.30;;;;;;;10.03;54.14;98865.89;1801238;77;21008;-66
2022/01/01 09:05:29;;;;;;;1.62;1.32;;;;;;;10.06;54.08;98870.50;1830360;77;21110;-69
2022/01/01 09:07:57;;;;;;;1.70;1.30;;;;;;;10.08;54.37;98874.61;1820857;77;20961;-68
2022/01/01 09:10:23;;;;;;;1.40;1.30;;;;;;;10.10;54.48;98883.72;1838624;77;22506;-68
2022/01/01 09:12:51;;;;;;;1.35;1.22;;;;;;;10.11;54.48;98888.03;1825343;77;21000;-66
2022/01/01 09:15:17;;;;;;;1.50;1.30;;;;;;;10.11;54.54;98876.90;1816437;77;21008;-67
2022/01/01 09:17:45;;;;;;;1.62;1.52;;;;;;;10.13;54.66;98885.50;1806502;77;21104;-64
2022/01/01 09:20:12;;;;;;;1.87;1.40;;;;;;;10.13;54.73;98890.80;1794220;78;21048;-64
2022/01/01 09:22:40;;;;;;;1.40;1.30;;;;;;;10.14;54.70;98887.16;1824286;77;21535;-65
2022/01/01 09:25:07;;;;;;;1.52;1.42;;;;;;;10.15;54.59;98881.34;1793839;78;21040;-67
2022/01/01 09:27:34;;;;;;;1.40;1.30;;;;;;;10.16;54.59;98888.27;1822052;77;21079;-66
2022/01/01 09:30:00;;;;;;;1.70;1.60;;;;;;;10.16;54.58;98886.47;1806796;77;21029;-66
2022/01/01 09:32:27;;;;;;;1.57;1.45;;;;;;;10.17;54.62;98877.98;1824052;77;21016;-66
2022/01/01 09:34:55;;;;;;;1.10;1.00;;;;;;;10.19;54.59;98879.95;1798780;78;21521;-66
2022/01/01 09:37:23;;;;;;;1.42;1.32;;;;;;;10.21;54.59;98878.74;1844479;77;21047;-66
2022/01/01 09:39:50;;;;;;;1.60;1.40;;;;;;;10.21;54.41;98882.73;1824445;77;21029;-65
2022/01/01 09:42:16;;;;;;;1.30;1.20;;;;;;;10.24;54.45;98889.52;1832592;77;21177;-66
2022/01/01 09:44:43;;;;;;;1.92;1.50;;;;;;;10.26;54.35;98891.95;1840705;77;21005;-65
2022/01/01 09:47:10;;;;;;;1.30;1.20;;;;;;;10.26;54.41;98893.28;1802637;78;23322;-66
2022/01/01 09:49:36;;;;;;;1.60;1.32;;;;;;;10.28;54.37;98903.23;1804649;77;21659;-66
2022/01/01 09:52:05;;;;;;;1.02;1.00;;;;;;;10.28;54.38;98898.75;1786613;78;21006;-66
2022/01/01 09:54:32;;;;;;;1.30;1.20;;;;;;;10.30;54.33;98899.89;1794301;79;21095;-67
2022/01/01 09:56:58;;;;;;;2.60;1.40;;;;;;;10.29;54.28;98901.70;1781539;79;21074;-66
2022/01/01 09:59:25;;;;;;;1.20;1.10;;;;;;;10.30;54.31;98908.70;1784286;78;21046;-68
2022/01/01 10:01:51;;;;;;;1.42;1.32;;;;;;;10.30;54.31;98908.70;1781908;79;21030;-66
2022/01/01 10:04:18;;;;;;;1.30;1.12;;;;;;;10.31;54.29;98907.67;1772036;79;21061;-67
2022/01/01 10:07:02;;;;;;;1.70;1.47;;;;;;;10.31;54.33;98894.92;1775193;79;21525;-67
2022/01/01 10:09:33;;;;;;;1.10;0.95;;;;;;;10.32;54.33;98897.39;1782430;78;21105;-66
2022/01/01 10:12:00;;;;;;;1.40;1.30;;;;;;;10.32;54.31;98897.39;1790628;79;21087;-65
2022/01/01 10:14:40;;;;;;;1.20;1.10;;;;;;;10.32;54.22;98902.70;1798719;79;21553;-66
2022/01/01 10:17:20;;;;;;;1.35;1.10;;;;;;;10.32;54.29;98893.92;1795005;78;21077;-67
2022/01/01 10:19:49;;;;;;;1.32;1.22;;;;;;;10.32;54.31;98898.72;1776898;79;21529;-65
2022/01/01 10:22:20;;;;;;;1.40;1.30;;;;;;;10.33;54.21;98889.73;1782033;79;21109;-66
2022/01/01 10:27:42;;;;;;;1.30;1.20;;;;;;;10.34;54.30;98894.55;1721554;82;21053;-65
2022/01/01 10:30:19;;;;;;;1.65;1.47;;;;;;;10.34;54.29;98896.70;1730221;82;21025;-67
2022/01/01 10:33:10;;;;;;;1.47;1.30;;;;;;;10.34;54.32;98895.37;1707233;83;21067;-66
2022/01/01 10:35:50;;;;;;;1.30;1.20;;;;;;;10.35;54.27;98900.17;1797576;78;21405;-67
2022/01/01 10:38:20;;;;;;;1.20;1.10;;;;;;;10.36;54.22;98901.83;1805580;78;21122;-66
2022/01/01 10:40:46;;;;;;;1.20;1.10;;;;;;;10.35;54.28;98903.66;1776158;78;21033;-68
2022/01/01 10:43:16;;;;;;;1.10;1.00;;;;;;;10.36;54.22;98904.48;1776776;79;21612;-65
2022/01/01 10:45:48;;;;;;;1.55;1.30;;;;;;;10.35;54.18;98906.32;1796406;78;21101;-66
2022/01/01 10:48:27;;;;;;;1.20;1.10;;;;;;;10.37;54.19;98902.97;1784179;79;21085;-65
2022/01/01 10:50:53;;;;;;;1.35;1.25;;;;;;;10.37;54.20;98906.95;1773230;79;21764;-66
2022/01/01 10:53:23;;;;;;;0.95;0.95;;;;;;;10.37;54.16;98909.61;1803843;78;21053;-66
2022/01/01 10:55:53;;;;;;;1.60;1.30;;;;;;;10.38;54.20;98904.60;1812945;77;21470;-66
2022/01/01 10:58:26;;;;;;;1.35;1.25;;;;;;;10.38;54.25;98906.44;1814185;78;21461;-66
2022/01/01 11:01:01;;;;;;;1.40;1.30;;;;;;;10.38;54.24;98908.59;1798023;77;21049;-66
2022/01/01 11:03:28;;;;;;;1.50;1.12;;;;;;;10.40;54.30;98905.75;1806857;77;21149;-66
2022/01/01 11:06:12;;;;;;;1.15;1.05;;;;;;;10.39;54.22;98916.88;1803346;78;21536;-66
2022/01/01 11:08:42;;;;;;;1.12;1.02;;;;;;;10.40;54.24;98914.53;1734846;81;21108;-67
2022/01/01 11:11:10;;;;;;;1.55;1.30;;;;;;;10.41;54.16;98915.34;1760483;80;21039;-66
2022/01/01 11:13:37;;;;;;;1.40;1.30;;;;;;;10.39;54.17;98914.23;1785993;79;21019;-64
2022/01/01 11:16:04;;;;;;;1.20;1.10;;;;;;;10.41;54.28;98912.69;1774249;79;21043;-65
2022/01/01 11:18:34;;;;;;;1.10;1.00;;;;;;;10.40;54.18;98907.89;1770040;80;21034;-66
2022/01/01 11:21:01;;;;;;;1.42;1.17;;;;;;;10.41;54.14;98911.36;1775687;80;21026;-66
2022/01/01 11:23:28;;;;;;;1.17;1.00;;;;;;;10.41;54.17;98910.87;1759318;80;21060;-65
2022/01/01 11:25:55;;;;;;;1.17;1.00;;;;;;;10.42;54.17;98915.16;1742242;82;21554;-67
2022/01/01 11:28:21;;;;;;;1.15;1.05;;;;;;;10.42;54.11;98918.33;1730572;81;22334;-65
2022/01/01 11:31:01;;;;;;;1.07;1.00;;;;;;;10.42;54.08;98915.16;1773366;79;21057;-66
2022/01/01 11:33:36;;;;;;;1.22;1.10;;;;;;;10.42;54.08;98909.85;1783679;79;21497;-66
2022/01/01 11:36:04;;;;;;;1.15;1.05;;;;;;;10.43;54.13;98900.89;1786086;79;21487;-65
2022/01/01 11:38:35;;;;;;;1.55;1.25;;;;;;;10.43;54.23;98895.58;1779804;79;21041;-65
2022/01/01 11:41:11;;;;;;;1.17;1.07;;;;;;;10.45;54.20;98903.36;1772562;79;21538;-65
2022/01/01 11:43:55;;;;;;;1.25;1.15;;;;;;;10.47;54.21;98898.69;1743113;82;22394;-65
2022/01/01 11:46:24;;;;;;;1.10;1.00;;;;;;;10.48;54.24;98900.31;1742301;82;21078;-66